sensor_id;sensor_type;location;lat;lon;timestamp;P1;durP1;ratioP1;P2;durP2;ratioP2
21010;SDS011;10663;42.714;23.274;2023-10-13T00:00:27;10.50;;;7.90;;
21010;SDS011;10663;42.714;23.274;2023-10-13T00:02:01;12.05;;;8.32;;
21010;SDS011;10663;42.714;23.274;2023-10-13T00:03:35;12.05;;;8.43;;
21010;SDS011;10663;42.714;23.274;2023-10-13T00:05:07;11.73;;;8.10;;
21010;SDS011;10663;42.714;23.274;2023-10-13T00:06:40;10.40;;;8.00;;
21010;SDS011;10663;42.714;23.274;2023-10-13T00:08:13;9.63;;;8.38;;
21010;SDS011;10663;42.714;23.274;2023-10-13T00:09:44;11.73;;;7.97;;
21010;SDS011;10663;42.714;23.274;2023-10-13T00:11:15;11.63;;;8.43;;
21010;SDS011;10663;42.714;23.274;2023-10-13T00:12:46;14.73;;;8.60;;
21010;SDS011;10663;42.714;23.274;2023-10-13T00:14:20;12.60;;;8.93;;
21010;SDS011;10663;42.714;23.274;2023-10-13T00:16:01;14.25;;;8.90;;
21010;SDS011;10663;42.714;23.274;2023-10-13T00:17:33;10.07;;;8.40;;
21010;SDS011;10663;42.714;23.274;2023-10-13T00:19:09;13.15;;;8.90;;
21010;SDS011;10663;42.714;23.274;2023-10-13T00:20:43;13.57;;;10.38;;
21010;SDS011;10663;42.714;23.274;2023-10-13T00:22:19;14.23;;;10.03;;
21010;SDS011;10663;42.714;23.274;2023-10-13T00:23:53;12.90;;;8.55;;
21010;SDS011;10663;42.714;23.274;2023-10-13T00:25:24;11.50;;;9.10;;
21010;SDS011;10663;42.714;23.274;2023-10-13T00:27:02;14.40;;;10.00;;
21010;SDS011;10663;42.714;23.274;2023-10-13T00:28:36;13.93;;;9.52;;
21010;SDS011;10663;42.714;23.274;2023-10-13T00:30:15;13.50;;;9.90;;
21010;SDS011;10663;42.714;23.274;2023-10-13T00:32:03;11.40;;;9.55;;
21010;SDS011;10663;42.714;23.274;2023-10-13T00:33:34;14.00;;;9.38;;
21010;SDS011;10663;42.714;23.274;2023-10-13T00:35:06;14.00;;;9.65;;
21010;SDS011;10663;42.714;23.274;2023-10-13T00:36:41;17.08;;;9.93;;
21010;SDS011;10663;42.714;23.274;2023-10-13T00:38:31;13.23;;;9.65;;
21010;SDS011;10663;42.714;23.274;2023-10-13T00:40:02;13.90;;;9.97;;
21010;SDS011;10663;42.714;23.274;2023-10-13T00:41:38;11.80;;;9.45;;
21010;SDS011;10663;42.714;23.274;2023-10-13T00:43:29;14.52;;;9.55;;
21010;SDS011;10663;42.714;23.274;2023-10-13T00:45:02;13.82;;;9.57;;
21010;SDS011;10663;42.714;23.274;2023-10-13T00:46:35;11.38;;;9.30;;
21010;SDS011;10663;42.714;23.274;2023-10-13T00:48:09;16.45;;;10.38;;
21010;SDS011;10663;42.714;23.274;2023-10-13T00:49:44;13.93;;;9.30;;
21010;SDS011;10663;42.714;23.274;2023-10-13T00:51:18;13.07;;;9.77;;
21010;SDS011;10663;42.714;23.274;2023-10-13T00:53:10;13.07;;;10.00;;
21010;SDS011;10663;42.714;23.274;2023-10-13T00:54:42;13.57;;;9.70;;
21010;SDS011;10663;42.714;23.274;2023-10-13T00:56:16;13.95;;;9.85;;
21010;SDS011;10663;42.714;23.274;2023-10-13T00:57:52;13.52;;;9.98;;
21010;SDS011;10663;42.714;23.274;2023-10-13T00:59:27;12.98;;;10.00;;
21010;SDS011;10663;42.714;23.274;2023-10-13T01:01:03;12.75;;;9.93;;
21010;SDS011;10663;42.714;23.274;2023-10-13T01:02:55;14.02;;;10.13;;
21010;SDS011;10663;42.714;23.274;2023-10-13T01:04:26;13.73;;;9.90;;
21010;SDS011;10663;42.714;23.274;2023-10-13T01:06:02;14.68;;;10.35;;
21010;SDS011;10663;42.714;23.274;2023-10-13T01:07:34;13.45;;;9.52;;
21010;SDS011;10663;42.714;23.274;2023-10-13T01:09:08;14.37;;;10.03;;
21010;SDS011;10663;42.714;23.274;2023-10-13T01:10:44;13.40;;;9.98;;
21010;SDS011;10663;42.714;23.274;2023-10-13T01:12:15;14.60;;;9.73;;
21010;SDS011;10663;42.714;23.274;2023-10-13T01:13:46;14.85;;;10.27;;
21010;SDS011;10663;42.714;23.274;2023-10-13T01:15:21;14.32;;;10.07;;
21010;SDS011;10663;42.714;23.274;2023-10-13T01:16:52;14.80;;;10.13;;
21010;SDS011;10663;42.714;23.274;2023-10-13T01:18:23;14.45;;;9.48;;
21010;SDS011;10663;42.714;23.274;2023-10-13T01:19:59;13.30;;;9.43;;
21010;SDS011;10663;42.714;23.274;2023-10-13T01:21:30;12.52;;;9.90;;
21010;SDS011;10663;42.714;23.274;2023-10-13T01:23:04;15.20;;;10.27;;
21010;SDS011;10663;42.714;23.274;2023-10-13T01:24:41;14.88;;;9.23;;
21010;SDS011;10663;42.714;23.274;2023-10-13T01:26:12;14.90;;;10.43;;
21010;SDS011;10663;42.714;23.274;2023-10-13T01:27:47;13.93;;;9.35;;
21010;SDS011;10663;42.714;23.274;2023-10-13T01:29:19;13.57;;;9.40;;
21010;SDS011;10663;42.714;23.274;2023-10-13T01:30:56;12.27;;;9.25;;
21010;SDS011;10663;42.714;23.274;2023-10-13T01:32:27;13.43;;;9.48;;
21010;SDS011;10663;42.714;23.274;2023-10-13T01:33:58;13.70;;;9.60;;
21010;SDS011;10663;42.714;23.274;2023-10-13T01:35:29;13.48;;;9.70;;
21010;SDS011;10663;42.714;23.274;2023-10-13T01:37:07;12.40;;;9.67;;
21010;SDS011;10663;42.714;23.274;2023-10-13T01:38:41;12.70;;;9.82;;
21010;SDS011;10663;42.714;23.274;2023-10-13T01:40:13;12.50;;;9.77;;
21010;SDS011;10663;42.714;23.274;2023-10-13T01:41:49;15.15;;;10.15;;
21010;SDS011;10663;42.714;23.274;2023-10-13T01:43:25;13.25;;;9.40;;
21010;SDS011;10663;42.714;23.274;2023-10-13T01:44:56;13.77;;;10.50;;
21010;SDS011;10663;42.714;23.274;2023-10-13T01:46:35;11.63;;;9.77;;
21010;SDS011;10663;42.714;23.274;2023-10-13T01:48:07;16.35;;;10.57;;
21010;SDS011;10663;42.714;23.274;2023-10-13T01:49:39;16.23;;;10.00;;
21010;SDS011;10663;42.714;23.274;2023-10-13T01:51:14;15.07;;;10.23;;
21010;SDS011;10663;42.714;23.274;2023-10-13T01:52:45;14.23;;;10.50;;
21010;SDS011;10663;42.714;23.274;2023-10-13T01:54:16;14.82;;;9.50;;
21010;SDS011;10663;42.714;23.274;2023-10-13T01:55:49;13.52;;;10.65;;
21010;SDS011;10663;42.714;23.274;2023-10-13T01:57:20;15.70;;;10.00;;
21010;SDS011;10663;42.714;23.274;2023-10-13T01:58:54;13.55;;;9.93;;
21010;SDS011;10663;42.714;23.274;2023-10-13T02:00:25;13.32;;;9.40;;
21010;SDS011;10663;42.714;23.274;2023-10-13T02:01:56;15.43;;;10.30;;
21010;SDS011;10663;42.714;23.274;2023-10-13T02:03:31;16.45;;;10.20;;
21010;SDS011;10663;42.714;23.274;2023-10-13T02:05:02;12.87;;;9.47;;
21010;SDS011;10663;42.714;23.274;2023-10-13T02:06:35;14.80;;;9.90;;
21010;SDS011;10663;42.714;23.274;2023-10-13T02:08:07;12.73;;;10.10;;
21010;SDS011;10663;42.714;23.274;2023-10-13T02:09:38;13.63;;;9.68;;
21010;SDS011;10663;42.714;23.274;2023-10-13T02:11:09;13.63;;;9.85;;
21010;SDS011;10663;42.714;23.274;2023-10-13T02:12:42;12.50;;;9.87;;
21010;SDS011;10663;42.714;23.274;2023-10-13T02:14:13;12.57;;;10.37;;
21010;SDS011;10663;42.714;23.274;2023-10-13T02:15:48;14.93;;;9.65;;
21010;SDS011;10663;42.714;23.274;2023-10-13T02:17:22;15.25;;;10.02;;
21010;SDS011;10663;42.714;23.274;2023-10-13T02:18:59;14.73;;;9.83;;
21010;SDS011;10663;42.714;23.274;2023-10-13T02:20:38;12.00;;;9.93;;
21010;SDS011;10663;42.714;23.274;2023-10-13T02:22:14;13.88;;;10.57;;
21010;SDS011;10663;42.714;23.274;2023-10-13T02:23:58;14.23;;;10.48;;
21010;SDS011;10663;42.714;23.274;2023-10-13T02:25:34;15.05;;;10.60;;
21010;SDS011;10663;42.714;23.274;2023-10-13T02:27:17;14.55;;;10.50;;
21010;SDS011;10663;42.714;23.274;2023-10-13T02:28:48;14.02;;;9.77;;
21010;SDS011;10663;42.714;23.274;2023-10-13T02:30:25;13.65;;;10.27;;
21010;SDS011;10663;42.714;23.274;2023-10-13T02:32:00;14.27;;;10.10;;
21010;SDS011;10663;42.714;23.274;2023-10-13T02:33:35;15.07;;;9.80;;
21010;SDS011;10663;42.714;23.274;2023-10-13T02:35:06;16.48;;;10.13;;
21010;SDS011;10663;42.714;23.274;2023-10-13T02:36:45;12.70;;;9.90;;
21010;SDS011;10663;42.714;23.274;2023-10-13T02:38:20;13.85;;;9.40;;
21010;SDS011;10663;42.714;23.274;2023-10-13T02:39:58;13.85;;;10.30;;
21010;SDS011;10663;42.714;23.274;2023-10-13T02:41:30;13.27;;;10.30;;
21010;SDS011;10663;42.714;23.274;2023-10-13T02:43:03;15.55;;;10.23;;
21010;SDS011;10663;42.714;23.274;2023-10-13T02:44:36;14.60;;;10.50;;
21010;SDS011;10663;42.714;23.274;2023-10-13T02:46:07;14.80;;;10.75;;
21010;SDS011;10663;42.714;23.274;2023-10-13T02:47:38;15.45;;;10.68;;
21010;SDS011;10663;42.714;23.274;2023-10-13T02:49:09;15.60;;;10.88;;
21010;SDS011;10663;42.714;23.274;2023-10-13T02:50:41;15.43;;;10.70;;
21010;SDS011;10663;42.714;23.274;2023-10-13T02:52:15;16.00;;;10.68;;
21010;SDS011;10663;42.714;23.274;2023-10-13T02:53:47;18.00;;;10.70;;
21010;SDS011;10663;42.714;23.274;2023-10-13T02:55:21;15.63;;;11.27;;
21010;SDS011;10663;42.714;23.274;2023-10-13T02:56:56;13.93;;;10.57;;
21010;SDS011;10663;42.714;23.274;2023-10-13T02:58:27;15.82;;;11.57;;
21010;SDS011;10663;42.714;23.274;2023-10-13T03:00:09;14.43;;;10.90;;
21010;SDS011;10663;42.714;23.274;2023-10-13T03:01:48;15.68;;;10.70;;
21010;SDS011;10663;42.714;23.274;2023-10-13T03:03:23;16.17;;;11.18;;
21010;SDS011;10663;42.714;23.274;2023-10-13T03:04:57;14.38;;;10.32;;
21010;SDS011;10663;42.714;23.274;2023-10-13T03:06:39;16.63;;;10.50;;
21010;SDS011;10663;42.714;23.274;2023-10-13T03:08:11;14.18;;;10.13;;
21010;SDS011;10663;42.714;23.274;2023-10-13T03:09:42;13.52;;;10.93;;
21010;SDS011;10663;42.714;23.274;2023-10-13T03:11:21;13.50;;;10.27;;
21010;SDS011;10663;42.714;23.274;2023-10-13T03:12:54;13.93;;;10.57;;
21010;SDS011;10663;42.714;23.274;2023-10-13T03:14:26;16.52;;;11.00;;
21010;SDS011;10663;42.714;23.274;2023-10-13T03:16:20;15.95;;;10.45;;
21010;SDS011;10663;42.714;23.274;2023-10-13T03:17:51;15.30;;;11.10;;
21010;SDS011;10663;42.714;23.274;2023-10-13T03:19:25;16.60;;;10.80;;
21010;SDS011;10663;42.714;23.274;2023-10-13T03:21:03;15.65;;;11.13;;
21010;SDS011;10663;42.714;23.274;2023-10-13T03:22:35;18.40;;;11.97;;
21010;SDS011;10663;42.714;23.274;2023-10-13T03:24:07;17.23;;;11.43;;
21010;SDS011;10663;42.714;23.274;2023-10-13T03:25:38;17.42;;;12.27;;
21010;SDS011;10663;42.714;23.274;2023-10-13T03:27:13;16.42;;;12.13;;
21010;SDS011;10663;42.714;23.274;2023-10-13T03:28:48;16.40;;;12.27;;
21010;SDS011;10663;42.714;23.274;2023-10-13T03:30:22;17.20;;;12.32;;
21010;SDS011;10663;42.714;23.274;2023-10-13T03:32:01;15.50;;;12.10;;
21010;SDS011;10663;42.714;23.274;2023-10-13T03:33:42;16.23;;;11.68;;
21010;SDS011;10663;42.714;23.274;2023-10-13T03:35:15;17.63;;;11.77;;
21010;SDS011;10663;42.714;23.274;2023-10-13T03:36:55;17.45;;;12.02;;
21010;SDS011;10663;42.714;23.274;2023-10-13T03:38:29;17.40;;;12.18;;
21010;SDS011;10663;42.714;23.274;2023-10-13T03:40:00;15.35;;;11.02;;
21010;SDS011;10663;42.714;23.274;2023-10-13T03:41:36;15.30;;;11.45;;
21010;SDS011;10663;42.714;23.274;2023-10-13T03:43:09;17.77;;;11.40;;
21010;SDS011;10663;42.714;23.274;2023-10-13T03:44:40;15.10;;;10.20;;
21010;SDS011;10663;42.714;23.274;2023-10-13T03:46:16;16.23;;;10.85;;
21010;SDS011;10663;42.714;23.274;2023-10-13T03:47:52;15.13;;;11.30;;
21010;SDS011;10663;42.714;23.274;2023-10-13T03:49:23;16.77;;;11.50;;
21010;SDS011;10663;42.714;23.274;2023-10-13T03:50:58;14.90;;;10.98;;
21010;SDS011;10663;42.714;23.274;2023-10-13T03:52:45;14.15;;;10.85;;
21010;SDS011;10663;42.714;23.274;2023-10-13T03:54:17;13.67;;;11.60;;
21010;SDS011;10663;42.714;23.274;2023-10-13T03:55:48;14.98;;;11.55;;
21010;SDS011;10663;42.714;23.274;2023-10-13T03:57:32;16.20;;;11.85;;
21010;SDS011;10663;42.714;23.274;2023-10-13T03:59:08;17.65;;;12.07;;
21010;SDS011;10663;42.714;23.274;2023-10-13T04:00:48;15.40;;;11.45;;
21010;SDS011;10663;42.714;23.274;2023-10-13T04:02:19;17.35;;;11.75;;
21010;SDS011;10663;42.714;23.274;2023-10-13T04:03:51;15.50;;;11.68;;
21010;SDS011;10663;42.714;23.274;2023-10-13T04:05:35;16.65;;;11.68;;
21010;SDS011;10663;42.714;23.274;2023-10-13T04:07:17;16.77;;;11.18;;
21010;SDS011;10663;42.714;23.274;2023-10-13T04:08:57;15.73;;;11.73;;
21010;SDS011;10663;42.714;23.274;2023-10-13T04:10:48;15.13;;;11.67;;
21010;SDS011;10663;42.714;23.274;2023-10-13T04:12:21;16.70;;;11.45;;
21010;SDS011;10663;42.714;23.274;2023-10-13T04:14:13;17.92;;;11.88;;
21010;SDS011;10663;42.714;23.274;2023-10-13T04:15:54;15.70;;;11.85;;
21010;SDS011;10663;42.714;23.274;2023-10-13T04:17:43;18.85;;;12.23;;
21010;SDS011;10663;42.714;23.274;2023-10-13T04:19:18;16.23;;;11.63;;
21010;SDS011;10663;42.714;23.274;2023-10-13T04:20:56;18.55;;;11.93;;
21010;SDS011;10663;42.714;23.274;2023-10-13T04:22:42;16.70;;;12.70;;
21010;SDS011;10663;42.714;23.274;2023-10-13T04:24:16;17.52;;;13.48;;
21010;SDS011;10663;42.714;23.274;2023-10-13T04:25:47;18.13;;;13.20;;
21010;SDS011;10663;42.714;23.274;2023-10-13T04:27:21;18.77;;;13.02;;
21010;SDS011;10663;42.714;23.274;2023-10-13T04:29:09;16.73;;;12.25;;
21010;SDS011;10663;42.714;23.274;2023-10-13T04:30:58;20.00;;;13.07;;
21010;SDS011;10663;42.714;23.274;2023-10-13T04:32:29;17.67;;;12.93;;
21010;SDS011;10663;42.714;23.274;2023-10-13T04:34:03;15.63;;;12.27;;
21010;SDS011;10663;42.714;23.274;2023-10-13T04:35:44;19.70;;;12.88;;
21010;SDS011;10663;42.714;23.274;2023-10-13T04:37:28;21.60;;;13.77;;
21010;SDS011;10663;42.714;23.274;2023-10-13T04:39:02;19.73;;;13.82;;
21010;SDS011;10663;42.714;23.274;2023-10-13T04:40:33;22.98;;;13.43;;
21010;SDS011;10663;42.714;23.274;2023-10-13T04:42:07;19.40;;;12.90;;
21010;SDS011;10663;42.714;23.274;2023-10-13T04:43:59;18.65;;;13.30;;
21010;SDS011;10663;42.714;23.274;2023-10-13T04:45:49;17.60;;;13.02;;
21010;SDS011;10663;42.714;23.274;2023-10-13T04:47:25;21.13;;;13.13;;
21010;SDS011;10663;42.714;23.274;2023-10-13T04:49:02;22.45;;;14.25;;
21010;SDS011;10663;42.714;23.274;2023-10-13T04:50:40;21.00;;;13.65;;
21010;SDS011;10663;42.714;23.274;2023-10-13T04:52:16;19.25;;;13.63;;
21010;SDS011;10663;42.714;23.274;2023-10-13T04:54:09;20.45;;;12.93;;
21010;SDS011;10663;42.714;23.274;2023-10-13T04:55:57;22.13;;;13.63;;
21010;SDS011;10663;42.714;23.274;2023-10-13T04:57:34;19.50;;;14.00;;
21010;SDS011;10663;42.714;23.274;2023-10-13T04:59:20;20.75;;;13.70;;
21010;SDS011;10663;42.714;23.274;2023-10-13T05:01:07;21.30;;;14.55;;
21010;SDS011;10663;42.714;23.274;2023-10-13T05:03:07;24.17;;;14.00;;
21010;SDS011;10663;42.714;23.274;2023-10-13T05:04:57;22.02;;;14.65;;
21010;SDS011;10663;42.714;23.274;2023-10-13T05:06:37;21.55;;;13.65;;
21010;SDS011;10663;42.714;23.274;2023-10-13T05:08:08;21.40;;;14.02;;
21010;SDS011;10663;42.714;23.274;2023-10-13T05:09:57;19.60;;;13.07;;
21010;SDS011;10663;42.714;23.274;2023-10-13T05:11:47;23.08;;;13.63;;
21010;SDS011;10663;42.714;23.274;2023-10-13T05:13:36;18.17;;;12.75;;
21010;SDS011;10663;42.714;23.274;2023-10-13T05:15:26;24.80;;;13.52;;
21010;SDS011;10663;42.714;23.274;2023-10-13T05:17:22;26.42;;;13.65;;
21010;SDS011;10663;42.714;23.274;2023-10-13T05:19:12;25.58;;;13.70;;
21010;SDS011;10663;42.714;23.274;2023-10-13T05:21:02;20.58;;;13.60;;
21010;SDS011;10663;42.714;23.274;2023-10-13T05:22:51;20.58;;;12.75;;
21010;SDS011;10663;42.714;23.274;2023-10-13T05:24:41;25.70;;;13.07;;
21010;SDS011;10663;42.714;23.274;2023-10-13T05:26:30;18.55;;;13.23;;
21010;SDS011;10663;42.714;23.274;2023-10-13T05:28:20;20.83;;;12.65;;
21010;SDS011;10663;42.714;23.274;2023-10-13T05:30:10;23.17;;;13.30;;
21010;SDS011;10663;42.714;23.274;2023-10-13T05:32:00;18.92;;;13.48;;
21010;SDS011;10663;42.714;23.274;2023-10-13T05:33:50;26.33;;;13.10;;
21010;SDS011;10663;42.714;23.274;2023-10-13T05:35:40;23.25;;;13.30;;
21010;SDS011;10663;42.714;23.274;2023-10-13T05:37:30;23.52;;;13.82;;
21010;SDS011;10663;42.714;23.274;2023-10-13T05:39:19;24.20;;;13.98;;
21010;SDS011;10663;42.714;23.274;2023-10-13T05:41:12;21.08;;;14.25;;
21010;SDS011;10663;42.714;23.274;2023-10-13T05:43:02;21.50;;;14.20;;
21010;SDS011;10663;42.714;23.274;2023-10-13T05:44:53;26.52;;;14.07;;
21010;SDS011;10663;42.714;23.274;2023-10-13T05:46:47;22.07;;;14.33;;
21010;SDS011;10663;42.714;23.274;2023-10-13T05:48:40;22.65;;;14.20;;
21010;SDS011;10663;42.714;23.274;2023-10-13T05:50:29;23.13;;;13.80;;
21010;SDS011;10663;42.714;23.274;2023-10-13T05:52:23;23.77;;;13.95;;
21010;SDS011;10663;42.714;23.274;2023-10-13T05:54:17;23.52;;;14.18;;
21010;SDS011;10663;42.714;23.274;2023-10-13T05:55:48;24.20;;;13.38;;
21010;SDS011;10663;42.714;23.274;2023-10-13T05:57:38;24.85;;;14.30;;
21010;SDS011;10663;42.714;23.274;2023-10-13T05:59:28;21.27;;;13.85;;
21010;SDS011;10663;42.714;23.274;2023-10-13T06:01:21;24.00;;;14.20;;
21010;SDS011;10663;42.714;23.274;2023-10-13T06:03:11;24.42;;;15.85;;
21010;SDS011;10663;42.714;23.274;2023-10-13T06:05:07;22.52;;;15.70;;
21010;SDS011;10663;42.714;23.274;2023-10-13T06:06:59;22.15;;;14.30;;
21010;SDS011;10663;42.714;23.274;2023-10-13T06:09:08;19.08;;;13.63;;
21010;SDS011;10663;42.714;23.274;2023-10-13T06:11:01;24.25;;;14.30;;
21010;SDS011;10663;42.714;23.274;2023-10-13T06:12:51;20.52;;;15.13;;
21010;SDS011;10663;42.714;23.274;2023-10-13T06:14:44;20.42;;;13.82;;
21010;SDS011;10663;42.714;23.274;2023-10-13T06:16:34;19.58;;;14.07;;
21010;SDS011;10663;42.714;23.274;2023-10-13T06:18:24;19.60;;;13.88;;
21010;SDS011;10663;42.714;23.274;2023-10-13T06:20:14;17.60;;;13.00;;
21010;SDS011;10663;42.714;23.274;2023-10-13T06:22:04;19.75;;;12.63;;
21010;SDS011;10663;42.714;23.274;2023-10-13T06:23:53;19.83;;;13.77;;
21010;SDS011;10663;42.714;23.274;2023-10-13T06:25:43;18.55;;;12.85;;
21010;SDS011;10663;42.714;23.274;2023-10-13T06:27:39;17.38;;;12.15;;
21010;SDS011;10663;42.714;23.274;2023-10-13T06:29:28;16.15;;;12.68;;
21010;SDS011;10663;42.714;23.274;2023-10-13T06:31:02;17.65;;;11.82;;
21010;SDS011;10663;42.714;23.274;2023-10-13T06:32:39;14.18;;;10.32;;
21010;SDS011;10663;42.714;23.274;2023-10-13T06:34:13;12.73;;;11.27;;
21010;SDS011;10663;42.714;23.274;2023-10-13T06:35:49;15.55;;;12.05;;
21010;SDS011;10663;42.714;23.274;2023-10-13T06:37:25;20.43;;;13.23;;
21010;SDS011;10663;42.714;23.274;2023-10-13T06:39:03;16.42;;;11.70;;
21010;SDS011;10663;42.714;23.274;2023-10-13T06:40:52;20.00;;;13.27;;
21010;SDS011;10663;42.714;23.274;2023-10-13T06:42:23;16.92;;;12.82;;
21010;SDS011;10663;42.714;23.274;2023-10-13T06:43:57;16.25;;;12.45;;
21010;SDS011;10663;42.714;23.274;2023-10-13T06:45:31;17.50;;;11.75;;
21010;SDS011;10663;42.714;23.274;2023-10-13T06:47:06;18.27;;;12.70;;
21010;SDS011;10663;42.714;23.274;2023-10-13T06:48:37;19.08;;;12.63;;
21010;SDS011;10663;42.714;23.274;2023-10-13T06:50:11;20.23;;;13.02;;
21010;SDS011;10663;42.714;23.274;2023-10-13T06:51:46;17.58;;;12.82;;
21010;SDS011;10663;42.714;23.274;2023-10-13T06:53:21;19.75;;;13.80;;
21010;SDS011;10663;42.714;23.274;2023-10-13T06:54:55;16.48;;;13.30;;
21010;SDS011;10663;42.714;23.274;2023-10-13T06:56:26;17.83;;;14.00;;
21010;SDS011;10663;42.714;23.274;2023-10-13T06:58:02;20.37;;;12.90;;
21010;SDS011;10663;42.714;23.274;2023-10-13T06:59:36;19.73;;;12.90;;
21010;SDS011;10663;42.714;23.274;2023-10-13T07:01:11;19.50;;;13.57;;
21010;SDS011;10663;42.714;23.274;2023-10-13T07:02:48;18.77;;;13.50;;
21010;SDS011;10663;42.714;23.274;2023-10-13T07:04:24;19.63;;;12.80;;
21010;SDS011;10663;42.714;23.274;2023-10-13T07:05:57;17.40;;;12.60;;
21010;SDS011;10663;42.714;23.274;2023-10-13T07:07:30;18.50;;;13.23;;
21010;SDS011;10663;42.714;23.274;2023-10-13T07:09:01;20.42;;;12.70;;
21010;SDS011;10663;42.714;23.274;2023-10-13T07:10:35;18.48;;;13.40;;
21010;SDS011;10663;42.714;23.274;2023-10-13T07:12:18;20.80;;;13.32;;
21010;SDS011;10663;42.714;23.274;2023-10-13T07:13:56;21.13;;;13.77;;
21010;SDS011;10663;42.714;23.274;2023-10-13T07:15:29;19.23;;;13.75;;
21010;SDS011;10663;42.714;23.274;2023-10-13T07:17:04;19.63;;;12.85;;
21010;SDS011;10663;42.714;23.274;2023-10-13T07:18:38;17.63;;;13.27;;
21010;SDS011;10663;42.714;23.274;2023-10-13T07:20:23;19.00;;;12.80;;
21010;SDS011;10663;42.714;23.274;2023-10-13T07:22:04;19.83;;;13.77;;
21010;SDS011;10663;42.714;23.274;2023-10-13T07:23:51;22.30;;;15.00;;
21010;SDS011;10663;42.714;23.274;2023-10-13T07:25:32;22.50;;;15.55;;
21010;SDS011;10663;42.714;23.274;2023-10-13T07:27:07;22.00;;;14.57;;
21010;SDS011;10663;42.714;23.274;2023-10-13T07:28:39;23.92;;;15.85;;
21010;SDS011;10663;42.714;23.274;2023-10-13T07:30:14;21.42;;;15.70;;
21010;SDS011;10663;42.714;23.274;2023-10-13T07:31:45;24.90;;;15.60;;
21010;SDS011;10663;42.714;23.274;2023-10-13T07:33:16;21.92;;;15.05;;
21010;SDS011;10663;42.714;23.274;2023-10-13T07:34:50;23.42;;;15.02;;
21010;SDS011;10663;42.714;23.274;2023-10-13T07:36:25;22.73;;;15.43;;
21010;SDS011;10663;42.714;23.274;2023-10-13T07:38:06;23.67;;;15.00;;
21010;SDS011;10663;42.714;23.274;2023-10-13T07:39:39;22.75;;;15.60;;
21010;SDS011;10663;42.714;23.274;2023-10-13T07:41:11;20.58;;;14.70;;
21010;SDS011;10663;42.714;23.274;2023-10-13T07:42:46;20.73;;;15.57;;
21010;SDS011;10663;42.714;23.274;2023-10-13T07:44:18;23.80;;;15.43;;
21010;SDS011;10663;42.714;23.274;2023-10-13T07:45:50;22.20;;;15.32;;
21010;SDS011;10663;42.714;23.274;2023-10-13T07:47:23;22.80;;;15.77;;
21010;SDS011;10663;42.714;23.274;2023-10-13T07:48:57;23.10;;;15.00;;
21010;SDS011;10663;42.714;23.274;2023-10-13T07:50:41;23.45;;;15.57;;
21010;SDS011;10663;42.714;23.274;2023-10-13T07:52:11;23.43;;;16.60;;
21010;SDS011;10663;42.714;23.274;2023-10-13T07:53:51;23.02;;;15.73;;
21010;SDS011;10663;42.714;23.274;2023-10-13T07:55:26;18.98;;;15.23;;
21010;SDS011;10663;42.714;23.274;2023-10-13T07:56:57;24.02;;;15.82;;
21010;SDS011;10663;42.714;23.274;2023-10-13T07:58:28;24.98;;;16.27;;
21010;SDS011;10663;42.714;23.274;2023-10-13T08:00:02;22.85;;;15.40;;
21010;SDS011;10663;42.714;23.274;2023-10-13T08:01:56;28.67;;;16.23;;
21010;SDS011;10663;42.714;23.274;2023-10-13T08:03:53;22.65;;;15.82;;
21010;SDS011;10663;42.714;23.274;2023-10-13T08:05:42;26.08;;;16.63;;
21010;SDS011;10663;42.714;23.274;2023-10-13T08:07:29;22.42;;;16.00;;
21010;SDS011;10663;42.714;23.274;2023-10-13T08:09:01;21.50;;;16.40;;
21010;SDS011;10663;42.714;23.274;2023-10-13T08:10:39;25.33;;;16.73;;
21010;SDS011;10663;42.714;23.274;2023-10-13T08:12:13;22.38;;;16.00;;
21010;SDS011;10663;42.714;23.274;2023-10-13T08:13:52;22.52;;;16.05;;
21010;SDS011;10663;42.714;23.274;2023-10-13T08:15:28;21.13;;;15.32;;
21010;SDS011;10663;42.714;23.274;2023-10-13T08:17:02;23.65;;;16.60;;
21010;SDS011;10663;42.714;23.274;2023-10-13T08:18:37;25.02;;;16.65;;
21010;SDS011;10663;42.714;23.274;2023-10-13T08:20:12;23.97;;;16.87;;
21010;SDS011;10663;42.714;23.274;2023-10-13T08:21:43;22.70;;;16.92;;
21010;SDS011;10663;42.714;23.274;2023-10-13T08:23:45;21.67;;;16.27;;
21010;SDS011;10663;42.714;23.274;2023-10-13T08:25:24;27.52;;;17.77;;
21010;SDS011;10663;42.714;23.274;2023-10-13T08:27:16;23.70;;;16.17;;
21010;SDS011;10663;42.714;23.274;2023-10-13T08:29:28;23.45;;;16.50;;
21010;SDS011;10663;42.714;23.274;2023-10-13T08:31:02;20.90;;;15.77;;
21010;SDS011;10663;42.714;23.274;2023-10-13T08:32:52;24.92;;;17.70;;
21010;SDS011;10663;42.714;23.274;2023-10-13T08:34:28;22.92;;;16.73;;
21010;SDS011;10663;42.714;23.274;2023-10-13T08:36:08;26.85;;;17.63;;
21010;SDS011;10663;42.714;23.274;2023-10-13T08:37:58;22.65;;;16.98;;
21010;SDS011;10663;42.714;23.274;2023-10-13T08:39:44;25.43;;;18.20;;
21010;SDS011;10663;42.714;23.274;2023-10-13T08:41:30;25.90;;;16.23;;
21010;SDS011;10663;42.714;23.274;2023-10-13T08:43:02;22.52;;;15.27;;
21010;SDS011;10663;42.714;23.274;2023-10-13T08:44:35;20.08;;;15.52;;
21010;SDS011;10663;42.714;23.274;2023-10-13T08:46:09;24.10;;;15.75;;
21010;SDS011;10663;42.714;23.274;2023-10-13T08:47:40;22.75;;;15.38;;
21010;SDS011;10663;42.714;23.274;2023-10-13T08:49:18;22.83;;;15.90;;
21010;SDS011;10663;42.714;23.274;2023-10-13T08:50:53;22.15;;;16.45;;
21010;SDS011;10663;42.714;23.274;2023-10-13T08:52:26;21.48;;;15.65;;
21010;SDS011;10663;42.714;23.274;2023-10-13T08:54:17;26.15;;;16.38;;
21010;SDS011;10663;42.714;23.274;2023-10-13T08:56:05;20.95;;;15.90;;
21010;SDS011;10663;42.714;23.274;2023-10-13T08:57:46;27.30;;;19.38;;
21010;SDS011;10663;42.714;23.274;2023-10-13T08:59:20;21.48;;;16.08;;
21010;SDS011;10663;42.714;23.274;2023-10-13T09:01:09;21.63;;;15.63;;
21010;SDS011;10663;42.714;23.274;2023-10-13T09:02:43;21.25;;;16.23;;
21010;SDS011;10663;42.714;23.274;2023-10-13T09:04:32;21.67;;;15.60;;
21010;SDS011;10663;42.714;23.274;2023-10-13T09:06:04;21.75;;;15.25;;
21010;SDS011;10663;42.714;23.274;2023-10-13T09:07:46;28.83;;;16.48;;
21010;SDS011;10663;42.714;23.274;2023-10-13T09:09:17;22.60;;;15.35;;
21010;SDS011;10663;42.714;23.274;2023-10-13T09:10:58;22.13;;;15.15;;
21010;SDS011;10663;42.714;23.274;2023-10-13T09:12:41;20.70;;;14.53;;
21010;SDS011;10663;42.714;23.274;2023-10-13T09:14:31;24.85;;;15.57;;
21010;SDS011;10663;42.714;23.274;2023-10-13T09:16:12;22.63;;;16.10;;
21010;SDS011;10663;42.714;23.274;2023-10-13T09:17:52;21.50;;;14.40;;
21010;SDS011;10663;42.714;23.274;2023-10-13T09:19:23;20.88;;;15.07;;
21010;SDS011;10663;42.714;23.274;2023-10-13T09:20:59;22.83;;;14.50;;
21010;SDS011;10663;42.714;23.274;2023-10-13T09:22:51;20.40;;;15.02;;
21010;SDS011;10663;42.714;23.274;2023-10-13T09:24:32;21.75;;;14.75;;
21010;SDS011;10663;42.714;23.274;2023-10-13T09:26:06;23.50;;;15.10;;
21010;SDS011;10663;42.714;23.274;2023-10-13T09:27:40;24.23;;;14.95;;
21010;SDS011;10663;42.714;23.274;2023-10-13T09:29:18;23.77;;;15.13;;